Flight Track Log - Related Links

Times and Time Zones

All times are in EDT time to prevent confusion due to time zone crossing. See the JZA8751 flight status page for this flight to view local times or setup timezone preferences in your user account.

Time Position Orientation Groundspeed Altitude Reporting Facility
EDT Latitude Longitude Course Direction KTS MPH feet Rate Location/Type
Sun 09:10:16 AM 45.4500 -73.7167 360° North 120 138 200  Level Montreal Center
Sun 09:11:33 AM 45.4500 -73.7167 360° North 140 161 300 179 Climbing Montreal Center
Sun 09:13:00 AM 45.5150 -73.8110 290° West  Level Estimated
Sun 09:15:18 AM 45.4500 -73.7167 306° West 120 138 1,100  Level Montreal Center
Sun 09:16:18 AM 45.4667 -73.7667 295° West 120 138 2,600 1,250 Climbing Montreal Center
Sun 09:17:18 AM 45.4833 -73.8167 295° West 150 173 3,600 1,050 Climbing Montreal Center
Sun 09:18:18 AM 45.5000 -73.8667 295° West 160 184 4,700 1,100 Climbing Montreal Center
Sun 09:19:18 AM 45.5333 -73.9333 306° West 170 196 5,800 1,100 Climbing Montreal Center
Sun 09:20:00 AM 45.7589 -74.2843 306° West  Level FlightAware Approximate
Sun 09:20:18 AM 45.5500 -73.9833 295° West 170 196 6,900  Level Montreal Center
Sun 09:21:18 AM 45.5833 -74.0333 314° West 170 196 7,900 1,100 Climbing Montreal Center
Sun 09:22:18 AM 45.6167 -74.1000 306° West 170 196 9,100 1,150 Climbing Montreal Center
Sun 09:23:18 AM 45.6333 -74.1500 296° West 160 184 10,200 1,000 Climbing Montreal Center
Sun 09:24:18 AM 45.6667 -74.2167 306° West 170 196 11,100 950 Climbing Montreal Center
Sun 09:25:18 AM 45.6833 -74.2667 296° West 170 196 12,100 1,000 Climbing Montreal Center
Sun 09:26:18 AM 45.7167 -74.3333 306° West 170 196 13,100 900 Climbing Montreal Center
Sun 09:27:18 AM 45.7500 -74.3833 314° West 180 207 13,900 850 Climbing Montreal Center
Sun 09:28:18 AM 45.7833 -74.4333 314° West 180 207 14,800 900 Climbing Montreal Center
Sun 09:29:18 AM 45.8167 -74.4833 314° West 180 207 15,700 650 Climbing Montreal Center
Sun 09:30:18 AM 45.8500 -74.5167 325° Northwest 180 207 16,100 150 Climbing Montreal Center
Sun 09:31:18 AM 45.9000 -74.6000 311° West 200 230 16,000  Descending Montreal Center
Sun 09:32:18 AM 45.9333 -74.6500 314° West 220 253 16,100  Climbing Montreal Center
Sun 09:33:18 AM 45.9833 -74.7167 317° Northwest 220 253 16,000  Descending Montreal Center
Sun 09:34:18 AM 46.0333 -74.7667 325° Northwest 220 253 16,100  Climbing Montreal Center
Sun 09:35:18 AM 46.0667 -74.8333 306° West 220 253 16,000 -50 Descending Montreal Center
Sun 09:36:18 AM 46.1167 -74.8833 325° Northwest 220 253 16,000 50 Level Montreal Center
Sun 09:37:18 AM 46.1667 -74.9500 317° Northwest 220 253 16,100  Climbing Montreal Center
Sun 09:38:18 AM 46.2167 -75.0167 317° Northwest 220 253 16,000 -50 Descending Montreal Center
Sun 09:39:18 AM 46.2667 -75.0667 325° Northwest 220 253 16,000  Level Montreal Center
Sun 09:40:18 AM 46.3167 -75.1500 311° West 220 253 16,000  Level Montreal Center
Sun 09:41:18 AM 46.3500 -75.1833 325° Northwest 220 253 16,000  Level Montreal Center
Sun 09:42:18 AM 46.4000 -75.2667 311° West 220 253 16,000  Level Montreal Center
Sun 09:43:18 AM 46.4500 -75.3333 317° Northwest 230 265 16,000  Level Montreal Center
Sun 09:44:18 AM 46.4833 -75.3833 314° West 220 253 16,000  Level Montreal Center
Sun 09:45:18 AM 46.5333 -75.4500 317° Northwest 230 265 16,000 -50 Level Montreal Center
Sun 09:46:18 AM 46.5833 -75.5333 311° West 230 265 15,900  Descending Montreal Center
Sun 09:47:18 AM 46.6333 -75.5833 326° Northwest 230 265 16,000  Climbing Montreal Center
Sun 09:48:18 AM 46.6667 -75.6500 306° West 230 265 15,900  Descending Montreal Center
Sun 09:49:18 AM 46.7167 -75.7000 326° Northwest 230 265 16,000 50 Climbing Montreal Center
Sun 09:50:18 AM 46.7667 -75.7667 318° Northwest 230 265 16,000  Level Montreal Center
Sun 09:51:18 AM 46.8167 -75.8500 311° West 230 265 16,000  Level Montreal Center
Sun 09:52:18 AM 46.8500 -75.9000 314° West 230 265 16,000 50 Level Montreal Center
Sun 09:53:18 AM 46.9000 -75.9667 318° Northwest 230 265 16,100  Climbing Montreal Center
Sun 09:54:18 AM 46.9500 -76.0333 318° Northwest 230 265 16,000 -50 Descending Montreal Center
Sun 09:55:18 AM 46.9833 -76.0833 314° West 230 265 16,000  Level Montreal Center
Sun 09:56:18 AM 47.0333 -76.1667 311° West 230 265 16,000  Level Montreal Center
Sun 09:57:18 AM 47.0833 -76.2167 326° Northwest 230 265 16,000  Level Montreal Center
Sun 09:58:18 AM 47.1167 -76.2833 306° West 220 253 16,000  Level Montreal Center
Sun 09:59:18 AM 47.1667 -76.3667 311° West 220 253 16,000  Level Montreal Center
Sun 10:00:18 AM 47.2167 -76.4167 326° Northwest 220 253 16,000  Level Montreal Center
Sun 10:01:18 AM 47.2500 -76.4833 306° West 230 265 16,000  Level Montreal Center
Sun 10:02:18 AM 47.3000 -76.5333 326° Northwest 220 253 16,000  Level Montreal Center
Sun 10:03:18 AM 47.3500 -76.6167 312° West 220 253 16,000  Level Montreal Center
Sun 10:04:18 AM 47.3833 -76.6667 315° West 220 253 16,000  Level Montreal Center
Sun 10:05:18 AM 47.4333 -76.7333 318° Northwest 220 253 16,000  Level Montreal Center
Sun 10:06:18 AM 47.4833 -76.7833 326° Northwest 220 253 16,000  Level Montreal Center
Sun 10:07:18 AM 47.5167 -76.8667 301° West 220 253 16,000 -100 Level Montreal Center
Sun 10:08:18 AM 47.5667 -76.9333 318° Northwest 220 253 15,800 -700 Descending Montreal Center
Sun 10:09:18 AM 47.6000 -77.0167 301° West 230 265 14,600 -1,050 Descending Montreal Center
Sun 10:10:18 AM 47.6333 -77.1167 296° West 250 288 13,700 -900 Descending Montreal Center
Sun 10:13:00 AM 47.6992 -77.2199 314° West  Level Estimated
Sun 10:20:00 AM 48.0119 -77.5856 320° Northwest  Level FlightAware Approximate
Sun 10:21:00 AM 48.0551 -77.6395 320° Northwest  Level FlightAware Approximate
Sun 10:22:00 AM 48.0983 -77.6936 320° Northwest  Level FlightAware Approximate
Sun 10:23:00 AM 48.1361 -77.7555 307° West  Level FlightAware Approximate
Sun 10:24:00 AM 48.1615 -77.8146 165° South  Level FlightAware Approximate
Sun 10:25:00 AM 48.1071 -77.7928 165° South  Level FlightAware Approximate

Login

Don't have an account? Register now (free) for customized features, flight alerts, and more!